Wilmington, DE (19807)

12:18 PM EDT en Octubre 31, 2014 (GMT -0400)
Greenville | Change Station
CLOSE
Current Station
Estación meteorológica personal
Location: Wilmington, DE
Altura: 289 ft
Estaciones meteorológicas cercanas

Alt 289 ft 39.78 °N, 75.60 °W | Updated 5 seconds ago

Parcialmente nublado
Parcialmente nublado
50.2 ° F
Sensación térmica 50.2 ° F
N
2.0
Viento Variable Viento desde NNE
Gusts 2.0 mph

Hoy
Alta -- | Baja -- ° F
--% Posibilidad de precipitaciones
Ayer
Alta -- | Baja -- ° F
Precip. -- pul
7:30 AM 6:01 PM
Cuarto creciente, 56% visible
Presión 29.98 pul
Visibilidad 10.0 Millas
Nubes Despejado
Punto de rocío 42 ° F
Humedad 72%
Precipitaciones 0.00 pul
Espesor de la nieve No disponible.
UV 4 de una escala de 12
Polen .20 de una escala de 12
Calidad del aire No disponible.
Flu Activity No disponible.
METAR KILG 311551Z 01005KT 10SM CLR 11/03 A2998 RMK AO2 SLP150 T01060033

More Conditions Fewer Conditions

Presión 29.98 pul
Visibilidad 10.0 Millas
Nubes Despejado
Punto de rocío 42 ° F
Humedad 72%
Precipitaciones 0.00 pul
Espesor de la nieve No disponible.
UV 4 de una escala de 12
Polen .20 de una escala de 12
Calidad del aire No disponible.
Flu Activity No disponible.
METAR KILG 311551Z 01005KT 10SM CLR 11/03 A2998 RMK AO2 SLP150 T01060033

More Conditions Fewer Conditions

10-Day Weather Forecast

Almanac

Astronomía

Oct. 31, 2014 Salida Puesta
Hora real
Crepúsculo civil
Crepúsculo náutico
Crepúsculo astronómico
Luna
Horas de luz
Horas de luz
Tomorrow will be .
, % of the Moon is Illuminated

Extremos de hoy

Máximos del estado Bajos del estado

Community

WunderPhotos

Upload Photos

1,766,651 ¡fotos cargadas!

WunderBlogs® & News

Nearby

Calidad del aire

  Calidad del aire Índice AQ Contaminante
Not available.

Grosos de nieve

Estación Profundido Altura

Actividad de terremotos

Ciudad Distance Mag. Tiempo y dato
Magnitud mínima muestra es 2,5.

Temperaturas de aguas costeras

Lugar Temperatura

Estaciones meteorológicas cercanas